KARV

Details ICAO KARV (ARV)
Name Lakeland Noble F Lee Mem Fld
Region United States
Timezone America/Chicago (UTC-6.0)
Plans Departing 0
Arriving 1
Stats Elevation 1,630 ft / 497 m (AMSL)
Location 45.927337° -89.730536°
Runways 2
Magnetic Variation 2.891° W
Sunrise 2017-12-11 13:32:10 UTC / 2017-12-11 07:32:10 Local
Sunset 2017-12-11 22:15:19 UTC / 2017-12-11 16:15:19 Local
Advertisement - Login to hide

Runways

ID Width Length Bearing (true) Bearing (mag) Surface Threshold Offset Overrun Length
10 75 ft / 23 m 3,593 ft / 1,095 m 100.56° 103.45° Asphalt 0 ft / 0 m 0 ft / 0 m
18 100 ft / 30 m 5,153 ft / 1,571 m 178.93° 181.82° Asphalt 0 ft / 0 m 0 ft / 0 m
28 75 ft / 23 m 3,593 ft / 1,095 m 280.57° 283.46° Asphalt 0 ft / 0 m 0 ft / 0 m
36 100 ft / 30 m 5,153 ft / 1,571 m 358.93° 1.82° Asphalt 0 ft / 0 m 0 ft / 0 m

Approach Navaids

Runway Type Ident Frequency Range Bearing (true) Bearing (mag) Slope Elevation
36 Localiser IDOF 111.70 MHz 18 nm / 33 km 358.93° 1.82° - 1,630 ft / 497 m (AMSL)

Map

Weather


0- 5 10 15 20 25 30 35+ Temperature / ° C

Clouds and Precipitation
Forecast for 2017-12-12 00:00 UTC. Updated 2 hours ago

Ground ~20,000 ft ~40,000 ft Winds

METAR

KARV 112115Z AUTO 33011G22KT 10SM OVC006 M04/M05 A2974 RMK AO2 T10361047

TAF

Not found

Frequencies

Recorded 121.12 MHz AWOS 3
Unicom 122.70 MHz CTAF/UNICOM
Warning: Do not use this data for real-world aviation or navigation. No guarantee of current accuracy is given.